sensor_id;sensor_type;location;lat;lon;timestamp;temperature;humidity
27376;DHT22;14844;51.302;6.354;2023-04-16T00:02:18;8.20;99.90
27376;DHT22;14844;51.302;6.354;2023-04-16T00:04:43;8.30;99.90
27376;DHT22;14844;51.302;6.354;2023-04-16T00:07:09;8.20;99.90
27376;DHT22;14844;51.302;6.354;2023-04-16T00:09:34;8.20;99.90
27376;DHT22;14844;51.302;6.354;2023-04-16T00:12:00;8.30;99.90
27376;DHT22;14844;51.302;6.354;2023-04-16T00:14:25;8.20;99.90
27376;DHT22;14844;51.302;6.354;2023-04-16T00:16:51;8.20;99.90
27376;DHT22;14844;51.302;6.354;2023-04-16T00:19:16;8.20;99.90
27376;DHT22;14844;51.302;6.354;2023-04-16T00:21:42;8.20;99.90
27376;DHT22;14844;51.302;6.354;2023-04-16T00:24:07;8.20;99.90
27376;DHT22;14844;51.302;6.354;2023-04-16T00:26:33;8.20;99.90
27376;DHT22;14844;51.302;6.354;2023-04-16T00:28:58;8.20;99.90
27376;DHT22;14844;51.302;6.354;2023-04-16T00:31:25;8.20;99.90
27376;DHT22;14844;51.302;6.354;2023-04-16T00:33:50;8.20;99.90
27376;DHT22;14844;51.302;6.354;2023-04-16T00:36:16;8.20;99.90
27376;DHT22;14844;51.302;6.354;2023-04-16T00:38:42;8.20;99.90
27376;DHT22;14844;51.302;6.354;2023-04-16T00:41:07;8.20;99.90
27376;DHT22;14844;51.302;6.354;2023-04-16T00:43:32;8.10;99.90
27376;DHT22;14844;51.302;6.354;2023-04-16T00:45:59;8.10;99.90
27376;DHT22;14844;51.302;6.354;2023-04-16T00:48:24;8.10;99.90
27376;DHT22;14844;51.302;6.354;2023-04-16T00:50:52;8.20;99.90
27376;DHT22;14844;51.302;6.354;2023-04-16T00:53:19;8.10;99.90
27376;DHT22;14844;51.302;6.354;2023-04-16T00:55:44;8.10;99.90
27376;DHT22;14844;51.302;6.354;2023-04-16T00:58:10;8.10;99.90
27376;DHT22;14844;51.302;6.354;2023-04-16T01:00:36;8.20;99.90
27376;DHT22;14844;51.302;6.354;2023-04-16T01:03:01;8.10;99.90
27376;DHT22;14844;51.302;6.354;2023-04-16T01:05:27;8.10;99.90
27376;DHT22;14844;51.302;6.354;2023-04-16T01:07:52;8.20;99.90
27376;DHT22;14844;51.302;6.354;2023-04-16T01:10:18;8.20;99.90
27376;DHT22;14844;51.302;6.354;2023-04-16T01:12:43;8.20;99.90
27376;DHT22;14844;51.302;6.354;2023-04-16T01:15:09;8.20;99.90
27376;DHT22;14844;51.302;6.354;2023-04-16T01:17:35;8.20;99.90
27376;DHT22;14844;51.302;6.354;2023-04-16T01:20:01;8.20;99.90
27376;DHT22;14844;51.302;6.354;2023-04-16T01:22:26;8.20;99.90
27376;DHT22;14844;51.302;6.354;2023-04-16T01:24:52;8.20;99.90
27376;DHT22;14844;51.302;6.354;2023-04-16T01:27:18;8.20;99.90
27376;DHT22;14844;51.302;6.354;2023-04-16T01:29:43;8.20;99.90
27376;DHT22;14844;51.302;6.354;2023-04-16T01:32:09;8.20;99.90
27376;DHT22;14844;51.302;6.354;2023-04-16T01:34:34;8.20;99.90
27376;DHT22;14844;51.302;6.354;2023-04-16T01:37:00;8.30;99.90
27376;DHT22;14844;51.302;6.354;2023-04-16T01:39:25;8.20;99.90
27376;DHT22;14844;51.302;6.354;2023-04-16T01:41:51;8.20;99.90
27376;DHT22;14844;51.302;6.354;2023-04-16T01:44:16;8.20;99.90
27376;DHT22;14844;51.302;6.354;2023-04-16T01:46:42;8.20;99.90
27376;DHT22;14844;51.302;6.354;2023-04-16T01:49:07;8.30;99.90
27376;DHT22;14844;51.302;6.354;2023-04-16T01:51:33;8.20;99.90
27376;DHT22;14844;51.302;6.354;2023-04-16T01:53:58;8.30;99.90
27376;DHT22;14844;51.302;6.354;2023-04-16T01:56:24;8.30;99.90
27376;DHT22;14844;51.302;6.354;2023-04-16T01:58:50;8.30;99.90
27376;DHT22;14844;51.302;6.354;2023-04-16T02:01:15;8.30;99.90
27376;DHT22;14844;51.302;6.354;2023-04-16T02:03:41;8.30;99.90
27376;DHT22;14844;51.302;6.354;2023-04-16T02:06:06;8.30;99.90
27376;DHT22;14844;51.302;6.354;2023-04-16T02:08:32;8.30;99.90
27376;DHT22;14844;51.302;6.354;2023-04-16T02:10:58;8.40;99.90
27376;DHT22;14844;51.302;6.354;2023-04-16T02:13:23;8.30;99.90
27376;DHT22;14844;51.302;6.354;2023-04-16T02:15:50;8.30;99.90
27376;DHT22;14844;51.302;6.354;2023-04-16T02:18:16;8.30;99.90
27376;DHT22;14844;51.302;6.354;2023-04-16T02:20:46;8.30;99.90
27376;DHT22;14844;51.302;6.354;2023-04-16T02:23:12;8.30;99.90
27376;DHT22;14844;51.302;6.354;2023-04-16T02:25:39;8.40;99.90
27376;DHT22;14844;51.302;6.354;2023-04-16T02:28:08;8.40;99.90
27376;DHT22;14844;51.302;6.354;2023-04-16T02:30:34;8.40;99.90
27376;DHT22;14844;51.302;6.354;2023-04-16T02:33:01;8.40;99.90
27376;DHT22;14844;51.302;6.354;2023-04-16T02:35:29;8.40;99.90
27376;DHT22;14844;51.302;6.354;2023-04-16T02:37:54;8.40;99.90
27376;DHT22;14844;51.302;6.354;2023-04-16T02:40:20;8.40;99.90
27376;DHT22;14844;51.302;6.354;2023-04-16T02:42:45;8.40;99.90
27376;DHT22;14844;51.302;6.354;2023-04-16T02:45:11;8.40;99.90
27376;DHT22;14844;51.302;6.354;2023-04-16T02:47:37;8.40;99.90
27376;DHT22;14844;51.302;6.354;2023-04-16T02:50:02;8.40;99.90
27376;DHT22;14844;51.302;6.354;2023-04-16T02:52:28;8.40;99.90
27376;DHT22;14844;51.302;6.354;2023-04-16T02:54:53;8.40;99.90
27376;DHT22;14844;51.302;6.354;2023-04-16T02:57:18;8.40;99.90
27376;DHT22;14844;51.302;6.354;2023-04-16T02:59:44;8.40;99.90
27376;DHT22;14844;51.302;6.354;2023-04-16T03:02:10;8.40;99.90
27376;DHT22;14844;51.302;6.354;2023-04-16T03:04:35;8.40;99.90
27376;DHT22;14844;51.302;6.354;2023-04-16T03:07:01;8.40;99.90
27376;DHT22;14844;51.302;6.354;2023-04-16T03:09:26;8.40;99.90
27376;DHT22;14844;51.302;6.354;2023-04-16T03:11:52;8.40;99.90
27376;DHT22;14844;51.302;6.354;2023-04-16T03:14:17;8.40;99.90
27376;DHT22;14844;51.302;6.354;2023-04-16T03:16:43;8.40;99.90
27376;DHT22;14844;51.302;6.354;2023-04-16T03:19:08;8.40;99.90
27376;DHT22;14844;51.302;6.354;2023-04-16T03:21:34;8.40;99.90
27376;DHT22;14844;51.302;6.354;2023-04-16T03:23:59;8.40;99.90
27376;DHT22;14844;51.302;6.354;2023-04-16T03:26:25;8.40;99.90
27376;DHT22;14844;51.302;6.354;2023-04-16T03:28:51;8.40;99.90
27376;DHT22;14844;51.302;6.354;2023-04-16T03:31:16;8.40;99.90
27376;DHT22;14844;51.302;6.354;2023-04-16T03:33:42;8.50;99.90
27376;DHT22;14844;51.302;6.354;2023-04-16T03:36:07;8.50;99.90
27376;DHT22;14844;51.302;6.354;2023-04-16T03:38:33;8.50;99.90
27376;DHT22;14844;51.302;6.354;2023-04-16T03:40:58;8.40;99.90
27376;DHT22;14844;51.302;6.354;2023-04-16T03:43:24;8.40;99.90
27376;DHT22;14844;51.302;6.354;2023-04-16T03:45:49;8.50;99.90
27376;DHT22;14844;51.302;6.354;2023-04-16T03:48:15;8.50;99.90
27376;DHT22;14844;51.302;6.354;2023-04-16T03:50:44;8.50;99.90
27376;DHT22;14844;51.302;6.354;2023-04-16T03:53:09;8.40;99.90
27376;DHT22;14844;51.302;6.354;2023-04-16T03:55:35;8.40;99.90
27376;DHT22;14844;51.302;6.354;2023-04-16T03:58:00;8.40;99.90
27376;DHT22;14844;51.302;6.354;2023-04-16T04:00:27;8.40;99.90
27376;DHT22;14844;51.302;6.354;2023-04-16T04:02:53;8.40;99.90
27376;DHT22;14844;51.302;6.354;2023-04-16T04:05:19;8.40;99.90
27376;DHT22;14844;51.302;6.354;2023-04-16T04:07:44;8.40;99.90
27376;DHT22;14844;51.302;6.354;2023-04-16T04:10:10;8.40;99.90
27376;DHT22;14844;51.302;6.354;2023-04-16T04:12:35;8.40;99.90
27376;DHT22;14844;51.302;6.354;2023-04-16T04:15:01;8.40;99.90
27376;DHT22;14844;51.302;6.354;2023-04-16T04:17:26;8.40;99.90
27376;DHT22;14844;51.302;6.354;2023-04-16T04:19:52;8.40;99.90
27376;DHT22;14844;51.302;6.354;2023-04-16T04:22:18;8.40;99.90
27376;DHT22;14844;51.302;6.354;2023-04-16T04:24:43;8.40;99.90
27376;DHT22;14844;51.302;6.354;2023-04-16T04:27:09;8.40;99.90
27376;DHT22;14844;51.302;6.354;2023-04-16T04:29:34;8.40;99.90
27376;DHT22;14844;51.302;6.354;2023-04-16T04:32:00;8.40;99.90
27376;DHT22;14844;51.302;6.354;2023-04-16T04:34:25;8.40;99.90
27376;DHT22;14844;51.302;6.354;2023-04-16T04:36:51;8.50;99.90
27376;DHT22;14844;51.302;6.354;2023-04-16T04:39:16;8.40;99.90
27376;DHT22;14844;51.302;6.354;2023-04-16T04:41:42;8.50;99.90
27376;DHT22;14844;51.302;6.354;2023-04-16T04:44:07;8.50;99.90
27376;DHT22;14844;51.302;6.354;2023-04-16T04:46:33;8.50;99.90
27376;DHT22;14844;51.302;6.354;2023-04-16T04:48:58;8.40;99.90
27376;DHT22;14844;51.302;6.354;2023-04-16T04:51:24;8.50;99.90
27376;DHT22;14844;51.302;6.354;2023-04-16T04:53:51;8.50;99.90
27376;DHT22;14844;51.302;6.354;2023-04-16T04:56:16;8.50;99.90
27376;DHT22;14844;51.302;6.354;2023-04-16T04:58:42;8.50;99.90
27376;DHT22;14844;51.302;6.354;2023-04-16T05:01:07;8.50;99.90
27376;DHT22;14844;51.302;6.354;2023-04-16T05:03:33;8.50;99.90
27376;DHT22;14844;51.302;6.354;2023-04-16T05:05:58;8.50;99.90
27376;DHT22;14844;51.302;6.354;2023-04-16T05:08:23;8.50;99.90
27376;DHT22;14844;51.302;6.354;2023-04-16T05:10:49;8.60;99.90
27376;DHT22;14844;51.302;6.354;2023-04-16T05:13:14;8.60;99.90
27376;DHT22;14844;51.302;6.354;2023-04-16T05:15:40;8.60;99.90
27376;DHT22;14844;51.302;6.354;2023-04-16T05:18:05;8.60;99.90
27376;DHT22;14844;51.302;6.354;2023-04-16T05:20:31;8.60;99.90
27376;DHT22;14844;51.302;6.354;2023-04-16T05:22:56;8.60;99.90
27376;DHT22;14844;51.302;6.354;2023-04-16T05:25:22;8.70;99.90
27376;DHT22;14844;51.302;6.354;2023-04-16T05:27:47;8.70;99.90
27376;DHT22;14844;51.302;6.354;2023-04-16T05:30:13;8.70;99.90
27376;DHT22;14844;51.302;6.354;2023-04-16T05:32:38;8.70;99.90
27376;DHT22;14844;51.302;6.354;2023-04-16T05:35:05;8.70;99.90
27376;DHT22;14844;51.302;6.354;2023-04-16T05:37:31;8.70;99.90
27376;DHT22;14844;51.302;6.354;2023-04-16T05:39:56;8.70;99.90
27376;DHT22;14844;51.302;6.354;2023-04-16T05:42:21;8.80;99.90
27376;DHT22;14844;51.302;6.354;2023-04-16T05:44:49;8.80;99.90
27376;DHT22;14844;51.302;6.354;2023-04-16T05:47:15;8.80;99.90
27376;DHT22;14844;51.302;6.354;2023-04-16T05:49:41;8.90;99.90
27376;DHT22;14844;51.302;6.354;2023-04-16T05:52:07;8.90;99.90
27376;DHT22;14844;51.302;6.354;2023-04-16T05:54:32;8.90;99.90
27376;DHT22;14844;51.302;6.354;2023-04-16T05:56:59;8.80;99.90
27376;DHT22;14844;51.302;6.354;2023-04-16T05:59:25;8.90;99.90
27376;DHT22;14844;51.302;6.354;2023-04-16T06:01:51;8.90;99.90
27376;DHT22;14844;51.302;6.354;2023-04-16T06:04:16;8.90;99.90
27376;DHT22;14844;51.302;6.354;2023-04-16T06:06:42;8.90;99.90
27376;DHT22;14844;51.302;6.354;2023-04-16T06:09:07;8.90;99.90
27376;DHT22;14844;51.302;6.354;2023-04-16T06:11:33;8.90;99.90
27376;DHT22;14844;51.302;6.354;2023-04-16T06:13:59;8.90;99.90
27376;DHT22;14844;51.302;6.354;2023-04-16T06:16:24;8.90;99.90
27376;DHT22;14844;51.302;6.354;2023-04-16T06:18:50;8.90;99.90
27376;DHT22;14844;51.302;6.354;2023-04-16T06:21:15;8.90;99.90
27376;DHT22;14844;51.302;6.354;2023-04-16T06:23:41;9.00;99.90
27376;DHT22;14844;51.302;6.354;2023-04-16T06:26:06;9.00;99.90
27376;DHT22;14844;51.302;6.354;2023-04-16T06:28:32;8.90;99.90
27376;DHT22;14844;51.302;6.354;2023-04-16T06:30:58;9.00;99.90
27376;DHT22;14844;51.302;6.354;2023-04-16T06:33:24;8.90;99.90
27376;DHT22;14844;51.302;6.354;2023-04-16T06:35:49;8.90;99.90
27376;DHT22;14844;51.302;6.354;2023-04-16T06:38:14;8.90;99.90
27376;DHT22;14844;51.302;6.354;2023-04-16T06:40:40;9.00;99.90
27376;DHT22;14844;51.302;6.354;2023-04-16T06:43:05;9.00;99.90
27376;DHT22;14844;51.302;6.354;2023-04-16T06:45:31;8.90;99.90
27376;DHT22;14844;51.302;6.354;2023-04-16T06:47:57;9.00;99.90
27376;DHT22;14844;51.302;6.354;2023-04-16T06:50:23;9.00;99.90
27376;DHT22;14844;51.302;6.354;2023-04-16T06:52:51;9.00;99.90
27376;DHT22;14844;51.302;6.354;2023-04-16T06:55:16;9.10;99.90
27376;DHT22;14844;51.302;6.354;2023-04-16T06:57:42;9.20;99.90
27376;DHT22;14844;51.302;6.354;2023-04-16T07:00:11;9.20;99.90
27376;DHT22;14844;51.302;6.354;2023-04-16T07:02:37;9.20;99.90
27376;DHT22;14844;51.302;6.354;2023-04-16T07:05:02;9.20;99.90
27376;DHT22;14844;51.302;6.354;2023-04-16T07:07:28;9.20;99.90
27376;DHT22;14844;51.302;6.354;2023-04-16T07:09:54;9.10;99.90
27376;DHT22;14844;51.302;6.354;2023-04-16T07:12:19;9.10;99.90
27376;DHT22;14844;51.302;6.354;2023-04-16T07:14:45;9.10;99.90
27376;DHT22;14844;51.302;6.354;2023-04-16T07:17:11;9.20;99.90
27376;DHT22;14844;51.302;6.354;2023-04-16T07:19:36;9.10;99.90
27376;DHT22;14844;51.302;6.354;2023-04-16T07:22:02;9.20;99.90
27376;DHT22;14844;51.302;6.354;2023-04-16T07:24:28;9.20;99.90
27376;DHT22;14844;51.302;6.354;2023-04-16T07:26:53;9.20;99.90
27376;DHT22;14844;51.302;6.354;2023-04-16T07:29:19;9.20;99.90
27376;DHT22;14844;51.302;6.354;2023-04-16T07:31:44;9.20;99.90
27376;DHT22;14844;51.302;6.354;2023-04-16T07:34:10;9.30;99.90
27376;DHT22;14844;51.302;6.354;2023-04-16T07:36:36;9.30;99.90
27376;DHT22;14844;51.302;6.354;2023-04-16T07:39:03;9.30;99.90
27376;DHT22;14844;51.302;6.354;2023-04-16T07:41:30;9.30;99.90
27376;DHT22;14844;51.302;6.354;2023-04-16T07:43:56;9.30;99.90
27376;DHT22;14844;51.302;6.354;2023-04-16T07:46:22;9.40;99.90
27376;DHT22;14844;51.302;6.354;2023-04-16T07:48:47;9.40;99.90
27376;DHT22;14844;51.302;6.354;2023-04-16T07:51:13;9.50;99.90
27376;DHT22;14844;51.302;6.354;2023-04-16T07:53:38;9.50;99.90
27376;DHT22;14844;51.302;6.354;2023-04-16T07:56:04;9.50;99.90
27376;DHT22;14844;51.302;6.354;2023-04-16T07:58:29;9.60;99.90
27376;DHT22;14844;51.302;6.354;2023-04-16T08:00:55;9.60;99.90
27376;DHT22;14844;51.302;6.354;2023-04-16T08:03:20;9.70;99.90
27376;DHT22;14844;51.302;6.354;2023-04-16T08:05:46;9.70;99.90
27376;DHT22;14844;51.302;6.354;2023-04-16T08:08:11;9.70;99.90
27376;DHT22;14844;51.302;6.354;2023-04-16T08:10:37;9.70;99.90
27376;DHT22;14844;51.302;6.354;2023-04-16T08:13:03;9.70;99.90
27376;DHT22;14844;51.302;6.354;2023-04-16T08:15:28;9.70;99.90
27376;DHT22;14844;51.302;6.354;2023-04-16T08:17:53;9.80;99.90
27376;DHT22;14844;51.302;6.354;2023-04-16T08:20:19;9.80;99.90
27376;DHT22;14844;51.302;6.354;2023-04-16T08:22:45;9.90;99.90
27376;DHT22;14844;51.302;6.354;2023-04-16T08:25:10;10.00;99.90
27376;DHT22;14844;51.302;6.354;2023-04-16T08:27:36;10.10;99.90
27376;DHT22;14844;51.302;6.354;2023-04-16T08:30:02;10.30;99.90
27376;DHT22;14844;51.302;6.354;2023-04-16T08:32:27;10.30;99.90
27376;DHT22;14844;51.302;6.354;2023-04-16T08:34:53;10.30;99.90
27376;DHT22;14844;51.302;6.354;2023-04-16T08:37:18;10.40;99.90
27376;DHT22;14844;51.302;6.354;2023-04-16T08:39:43;10.40;99.90
27376;DHT22;14844;51.302;6.354;2023-04-16T08:42:12;10.40;99.90
27376;DHT22;14844;51.302;6.354;2023-04-16T08:44:40;10.40;99.90
27376;DHT22;14844;51.302;6.354;2023-04-16T08:47:07;10.50;99.90
27376;DHT22;14844;51.302;6.354;2023-04-16T08:49:34;10.60;99.90
27376;DHT22;14844;51.302;6.354;2023-04-16T08:52:00;10.60;99.90
27376;DHT22;14844;51.302;6.354;2023-04-16T08:54:34;10.60;99.90
27376;DHT22;14844;51.302;6.354;2023-04-16T08:57:02;10.60;99.90
27376;DHT22;14844;51.302;6.354;2023-04-16T08:59:30;10.60;99.90
27376;DHT22;14844;51.302;6.354;2023-04-16T09:01:56;10.60;99.90
27376;DHT22;14844;51.302;6.354;2023-04-16T09:04:24;10.50;99.90
27376;DHT22;14844;51.302;6.354;2023-04-16T09:06:50;10.60;99.90
27376;DHT22;14844;51.302;6.354;2023-04-16T09:09:16;10.70;99.90
27376;DHT22;14844;51.302;6.354;2023-04-16T09:11:42;10.80;99.90
27376;DHT22;14844;51.302;6.354;2023-04-16T09:14:09;11.00;99.90
27376;DHT22;14844;51.302;6.354;2023-04-16T09:16:37;11.10;99.90
27376;DHT22;14844;51.302;6.354;2023-04-16T09:19:03;11.20;99.90
27376;DHT22;14844;51.302;6.354;2023-04-16T09:21:29;11.10;99.90
27376;DHT22;14844;51.302;6.354;2023-04-16T09:23:55;11.20;99.90
27376;DHT22;14844;51.302;6.354;2023-04-16T09:26:21;11.30;99.90
27376;DHT22;14844;51.302;6.354;2023-04-16T09:28:47;11.40;99.90
27376;DHT22;14844;51.302;6.354;2023-04-16T09:31:13;11.80;99.90
27376;DHT22;14844;51.302;6.354;2023-04-16T09:33:39;12.10;99.90
27376;DHT22;14844;51.302;6.354;2023-04-16T09:36:05;12.60;99.90
27376;DHT22;14844;51.302;6.354;2023-04-16T09:38:47;12.70;99.90
27376;DHT22;14844;51.302;6.354;2023-04-16T09:41:13;12.70;99.90
27376;DHT22;14844;51.302;6.354;2023-04-16T09:43:41;12.60;99.90
27376;DHT22;14844;51.302;6.354;2023-04-16T09:46:06;12.40;99.90
27376;DHT22;14844;51.302;6.354;2023-04-16T09:48:35;12.10;99.90
27376;DHT22;14844;51.302;6.354;2023-04-16T09:51:01;11.90;99.90
27376;DHT22;14844;51.302;6.354;2023-04-16T09:53:30;12.10;99.90
27376;DHT22;14844;51.302;6.354;2023-04-16T09:55:56;12.50;99.90
27376;DHT22;14844;51.302;6.354;2023-04-16T09:58:22;12.90;99.90
27376;DHT22;14844;51.302;6.354;2023-04-16T10:00:48;13.10;99.90
27376;DHT22;14844;51.302;6.354;2023-04-16T10:03:14;13.30;99.90
27376;DHT22;14844;51.302;6.354;2023-04-16T10:05:40;13.40;99.90
27376;DHT22;14844;51.302;6.354;2023-04-16T10:08:12;13.60;99.90
27376;DHT22;14844;51.302;6.354;2023-04-16T10:10:37;13.80;99.90
27376;DHT22;14844;51.302;6.354;2023-04-16T10:13:03;14.20;99.90
27376;DHT22;14844;51.302;6.354;2023-04-16T10:15:28;14.50;99.90
27376;DHT22;14844;51.302;6.354;2023-04-16T10:17:54;14.80;99.90
27376;DHT22;14844;51.302;6.354;2023-04-16T10:20:21;15.00;99.90
27376;DHT22;14844;51.302;6.354;2023-04-16T10:22:48;15.10;99.90
27376;DHT22;14844;51.302;6.354;2023-04-16T10:25:14;15.20;99.90
27376;DHT22;14844;51.302;6.354;2023-04-16T10:27:39;15.10;99.90
27376;DHT22;14844;51.302;6.354;2023-04-16T10:30:06;15.30;99.90
27376;DHT22;14844;51.302;6.354;2023-04-16T10:32:32;15.40;99.90
27376;DHT22;14844;51.302;6.354;2023-04-16T10:34:58;15.20;99.90
27376;DHT22;14844;51.302;6.354;2023-04-16T10:37:30;15.20;99.90
27376;DHT22;14844;51.302;6.354;2023-04-16T10:39:57;15.00;99.90
27376;DHT22;14844;51.302;6.354;2023-04-16T10:42:22;15.10;99.90
27376;DHT22;14844;51.302;6.354;2023-04-16T10:44:48;15.50;99.90
27376;DHT22;14844;51.302;6.354;2023-04-16T10:47:13;15.50;99.90
27376;DHT22;14844;51.302;6.354;2023-04-16T10:49:39;15.30;99.90
27376;DHT22;14844;51.302;6.354;2023-04-16T10:52:11;15.30;99.90
27376;DHT22;14844;51.302;6.354;2023-04-16T10:54:37;15.50;99.90
27376;DHT22;14844;51.302;6.354;2023-04-16T10:57:04;15.70;99.90
27376;DHT22;14844;51.302;6.354;2023-04-16T10:59:31;16.00;99.90
27376;DHT22;14844;51.302;6.354;2023-04-16T11:01:58;16.00;99.90
27376;DHT22;14844;51.302;6.354;2023-04-16T11:12:18;16.10;99.90
27376;DHT22;14844;51.302;6.354;2023-04-16T11:17:14;15.70;99.90
27376;DHT22;14844;51.302;6.354;2023-04-16T11:19:40;15.70;99.90
27376;DHT22;14844;51.302;6.354;2023-04-16T11:22:06;15.90;99.90
27376;DHT22;14844;51.302;6.354;2023-04-16T11:24:31;15.90;99.90
27376;DHT22;14844;51.302;6.354;2023-04-16T11:26:57;15.60;99.90
27376;DHT22;14844;51.302;6.354;2023-04-16T11:29:23;15.60;99.90
27376;DHT22;14844;51.302;6.354;2023-04-16T11:31:49;15.70;99.90
27376;DHT22;14844;51.302;6.354;2023-04-16T11:34:14;15.70;99.90
27376;DHT22;14844;51.302;6.354;2023-04-16T11:36:41;16.20;99.90
27376;DHT22;14844;51.302;6.354;2023-04-16T11:39:07;16.60;99.90
27376;DHT22;14844;51.302;6.354;2023-04-16T11:41:32;16.70;99.90
27376;DHT22;14844;51.302;6.354;2023-04-16T11:43:58;16.70;99.90
27376;DHT22;14844;51.302;6.354;2023-04-16T11:46:24;16.70;99.90
27376;DHT22;14844;51.302;6.354;2023-04-16T11:49:01;16.60;99.90
27376;DHT22;14844;51.302;6.354;2023-04-16T11:51:27;16.70;99.90
27376;DHT22;14844;51.302;6.354;2023-04-16T11:53:53;16.60;99.90
27376;DHT22;14844;51.302;6.354;2023-04-16T11:56:24;16.30;99.90
27376;DHT22;14844;51.302;6.354;2023-04-16T12:01:34;16.50;99.90
27376;DHT22;14844;51.302;6.354;2023-04-16T12:04:00;16.60;99.90
27376;DHT22;14844;51.302;6.354;2023-04-16T12:06:26;16.30;99.90
27376;DHT22;14844;51.302;6.354;2023-04-16T12:08:51;15.70;99.90
27376;DHT22;14844;51.302;6.354;2023-04-16T12:11:17;15.50;99.90
27376;DHT22;14844;51.302;6.354;2023-04-16T12:14:05;15.20;99.90
27376;DHT22;14844;51.302;6.354;2023-04-16T12:16:28;15.10;99.90
27376;DHT22;14844;51.302;6.354;2023-04-16T12:19:03;15.40;99.90
27376;DHT22;14844;51.302;6.354;2023-04-16T12:21:42;15.80;99.90
27376;DHT22;14844;51.302;6.354;2023-04-16T12:24:09;16.20;99.90
27376;DHT22;14844;51.302;6.354;2023-04-16T12:26:41;16.40;99.90
27376;DHT22;14844;51.302;6.354;2023-04-16T12:29:23;16.20;99.90
27376;DHT22;14844;51.302;6.354;2023-04-16T12:31:50;16.10;99.90
27376;DHT22;14844;51.302;6.354;2023-04-16T12:34:22;16.00;99.90
27376;DHT22;14844;51.302;6.354;2023-04-16T12:36:48;16.00;99.90
27376;DHT22;14844;51.302;6.354;2023-04-16T12:39:14;16.10;99.90
27376;DHT22;14844;51.302;6.354;2023-04-16T12:41:41;16.10;99.90
27376;DHT22;14844;51.302;6.354;2023-04-16T12:46:34;16.80;99.90
27376;DHT22;14844;51.302;6.354;2023-04-16T12:48:59;17.10;99.90
27376;DHT22;14844;51.302;6.354;2023-04-16T12:51:25;17.10;99.90
27376;DHT22;14844;51.302;6.354;2023-04-16T12:53:51;16.90;99.90
27376;DHT22;14844;51.302;6.354;2023-04-16T12:56:16;16.70;99.90
27376;DHT22;14844;51.302;6.354;2023-04-16T12:58:42;16.60;99.90
27376;DHT22;14844;51.302;6.354;2023-04-16T13:01:07;16.50;99.90
27376;DHT22;14844;51.302;6.354;2023-04-16T13:03:33;16.40;99.90
27376;DHT22;14844;51.302;6.354;2023-04-16T13:06:01;16.30;99.90
27376;DHT22;14844;51.302;6.354;2023-04-16T13:08:27;16.30;99.90
27376;DHT22;14844;51.302;6.354;2023-04-16T13:10:53;16.40;99.90
27376;DHT22;14844;51.302;6.354;2023-04-16T13:13:19;16.60;99.90
27376;DHT22;14844;51.302;6.354;2023-04-16T13:15:44;16.80;99.90
27376;DHT22;14844;51.302;6.354;2023-04-16T13:18:10;16.90;99.90
27376;DHT22;14844;51.302;6.354;2023-04-16T13:20:35;17.40;99.90
27376;DHT22;14844;51.302;6.354;2023-04-16T13:23:01;17.90;99.90
27376;DHT22;14844;51.302;6.354;2023-04-16T13:25:29;17.80;99.90
27376;DHT22;14844;51.302;6.354;2023-04-16T13:27:54;17.40;99.90
27376;DHT22;14844;51.302;6.354;2023-04-16T13:30:20;16.60;99.90
27376;DHT22;14844;51.302;6.354;2023-04-16T13:32:45;16.20;99.90
27376;DHT22;14844;51.302;6.354;2023-04-16T13:35:11;16.00;99.90
27376;DHT22;14844;51.302;6.354;2023-04-16T13:37:37;16.10;99.90
27376;DHT22;14844;51.302;6.354;2023-04-16T13:40:02;16.40;99.90
27376;DHT22;14844;51.302;6.354;2023-04-16T13:42:28;16.40;99.90
27376;DHT22;14844;51.302;6.354;2023-04-16T13:44:53;16.50;99.90
27376;DHT22;14844;51.302;6.354;2023-04-16T13:47:19;17.10;99.90
27376;DHT22;14844;51.302;6.354;2023-04-16T13:49:45;17.20;99.90
27376;DHT22;14844;51.302;6.354;2023-04-16T13:52:10;17.10;99.90
27376;DHT22;14844;51.302;6.354;2023-04-16T13:54:35;16.70;99.90
27376;DHT22;14844;51.302;6.354;2023-04-16T13:57:01;16.20;99.90
27376;DHT22;14844;51.302;6.354;2023-04-16T13:59:26;15.80;99.90
27376;DHT22;14844;51.302;6.354;2023-04-16T14:01:52;15.60;99.90
27376;DHT22;14844;51.302;6.354;2023-04-16T14:04:18;15.30;99.90
27376;DHT22;14844;51.302;6.354;2023-04-16T14:06:43;14.90;99.90
27376;DHT22;14844;51.302;6.354;2023-04-16T14:09:09;14.70;99.90
27376;DHT22;14844;51.302;6.354;2023-04-16T14:11:35;14.80;99.90
27376;DHT22;14844;51.302;6.354;2023-04-16T14:14:00;15.10;99.90
27376;DHT22;14844;51.302;6.354;2023-04-16T14:16:26;15.60;99.90
27376;DHT22;14844;51.302;6.354;2023-04-16T14:18:51;15.60;99.90
27376;DHT22;14844;51.302;6.354;2023-04-16T14:21:17;15.70;99.90
27376;DHT22;14844;51.302;6.354;2023-04-16T14:23:43;15.80;99.90
27376;DHT22;14844;51.302;6.354;2023-04-16T14:26:08;16.10;99.90
27376;DHT22;14844;51.302;6.354;2023-04-16T14:28:34;16.20;99.90
27376;DHT22;14844;51.302;6.354;2023-04-16T14:31:00;16.40;99.90
27376;DHT22;14844;51.302;6.354;2023-04-16T14:33:25;16.10;99.90
27376;DHT22;14844;51.302;6.354;2023-04-16T14:35:51;15.80;99.90
27376;DHT22;14844;51.302;6.354;2023-04-16T14:38:16;15.50;99.90
27376;DHT22;14844;51.302;6.354;2023-04-16T14:40:42;15.20;99.90
27376;DHT22;14844;51.302;6.354;2023-04-16T14:43:08;15.00;99.90
27376;DHT22;14844;51.302;6.354;2023-04-16T14:45:33;14.70;99.90
27376;DHT22;14844;51.302;6.354;2023-04-16T14:47:58;14.60;99.90
27376;DHT22;14844;51.302;6.354;2023-04-16T14:50:24;14.50;99.90
27376;DHT22;14844;51.302;6.354;2023-04-16T14:52:49;14.20;99.90
27376;DHT22;14844;51.302;6.354;2023-04-16T14:55:15;13.90;99.90
27376;DHT22;14844;51.302;6.354;2023-04-16T14:57:41;13.80;99.90
27376;DHT22;14844;51.302;6.354;2023-04-16T15:00:07;13.80;99.90
27376;DHT22;14844;51.302;6.354;2023-04-16T15:02:36;13.60;99.90
27376;DHT22;14844;51.302;6.354;2023-04-16T15:05:02;13.30;99.90
27376;DHT22;14844;51.302;6.354;2023-04-16T15:07:27;13.10;99.90
27376;DHT22;14844;51.302;6.354;2023-04-16T15:09:53;13.10;99.90
27376;DHT22;14844;51.302;6.354;2023-04-16T15:12:18;13.10;99.90
27376;DHT22;14844;51.302;6.354;2023-04-16T15:14:44;13.10;99.90
27376;DHT22;14844;51.302;6.354;2023-04-16T15:17:09;13.00;99.90
27376;DHT22;14844;51.302;6.354;2023-04-16T15:19:35;13.00;99.90
27376;DHT22;14844;51.302;6.354;2023-04-16T15:22:00;12.80;99.90
27376;DHT22;14844;51.302;6.354;2023-04-16T15:24:26;12.40;99.90
27376;DHT22;14844;51.302;6.354;2023-04-16T15:26:51;12.10;99.90
27376;DHT22;14844;51.302;6.354;2023-04-16T15:29:17;12.00;99.90
27376;DHT22;14844;51.302;6.354;2023-04-16T15:31:42;12.00;99.90
27376;DHT22;14844;51.302;6.354;2023-04-16T15:34:08;12.00;99.90
27376;DHT22;14844;51.302;6.354;2023-04-16T15:36:33;12.20;99.90
27376;DHT22;14844;51.302;6.354;2023-04-16T15:38:59;12.30;99.90
27376;DHT22;14844;51.302;6.354;2023-04-16T15:41:24;12.40;99.90
27376;DHT22;14844;51.302;6.354;2023-04-16T15:43:52;12.40;99.90
27376;DHT22;14844;51.302;6.354;2023-04-16T15:46:18;12.40;99.90
27376;DHT22;14844;51.302;6.354;2023-04-16T15:48:43;12.40;99.90